Time;durP1;ratioP1;P1;durP2;ratioP2;P2;SDS_P1;SDS_P2;PMS_P1;PMS_P2;Temp;Humidity;BMP_temperature;BMP_pressure;BME280_temperature;BME280_humidity;BME280_pressure;Samples;Min_cycle;Max_cycle;Signal;HPM_P1;HPM_P2
2023/02/26 00:01:28;;;;;;;5.18;1.13;;;-0.40;82.00;;;;;;5062162;28;20136;-77
2023/02/26 00:03:58;;;;;;;1.60;0.68;;;-0.40;81.30;;;;;;5062084;28;20102;-77
2023/02/26 00:06:25;;;;;;;2.53;0.73;;;-0.40;82.20;;;;;;5063228;28;20514;-77
2023/02/26 00:08:54;;;;;;;3.88;0.85;;;-0.40;81.40;;;;;;5062230;28;20048;-77
2023/02/26 00:11:21;;;;;;;6.00;1.15;;;-0.40;82.60;;;;;;5044540;28;20076;-78
2023/02/26 00:13:48;;;;;;;6.53;0.90;;;-0.40;82.60;;;;;;5063915;28;20774;-77
2023/02/26 00:16:21;;;;;;;7.20;1.20;;;-0.40;83.20;;;;;;5046350;28;20066;-77
2023/02/26 00:18:48;;;;;;;2.65;0.75;;;-0.40;82.80;;;;;;5063379;28;20048;-78
2023/02/26 00:21:18;;;;;;;4.18;0.70;;;-0.40;83.40;;;;;;5050438;28;20063;-77
2023/02/26 00:23:45;;;;;;;2.10;0.52;;;-0.40;83.20;;;;;;5050225;28;20056;-78
2023/02/26 00:26:12;;;;;;;7.18;1.05;;;-0.50;82.00;;;;;;5067932;28;20549;-77
2023/02/26 00:28:39;;;;;;;0.77;0.35;;;-0.40;83.20;;;;;;5049772;28;20063;-77
2023/02/26 00:31:06;;;;;;;1.15;0.75;;;-0.40;83.80;;;;;;5046764;28;20049;-77
2023/02/26 00:33:34;;;;;;;2.55;0.63;;;-0.40;83.70;;;;;;5047289;28;20044;-77
2023/02/26 00:36:20;;;;;;;2.97;0.68;;;-0.40;83.90;;;;;;5058274;28;20048;-76
2023/02/26 00:39:25;;;;;;;1.27;0.60;;;-0.40;83.40;;;;;;5040609;28;20053;-77
2023/02/26 00:41:52;;;;;;;2.25;0.82;;;-0.40;83.50;;;;;;5040290;28;20101;-83
2023/02/26 00:44:19;;;;;;;4.57;0.75;;;-0.40;83.00;;;;;;5046074;28;20048;-84
2023/02/26 00:47:06;;;;;;;4.07;0.95;;;-0.40;83.00;;;;;;5050201;28;20442;-83
2023/02/26 00:49:45;;;;;;;0.90;0.50;;;-0.30;82.90;;;;;;5069323;28;20143;-90
2023/02/26 00:52:32;;;;;;;2.05;0.52;;;-0.30;82.90;;;;;;5049821;28;20844;-85
2023/02/26 00:55:00;;;;;;;6.07;0.80;;;-0.30;82.40;;;;;;5050973;28;20123;-81
2023/02/26 00:57:42;;;;;;;4.13;0.57;;;-0.30;82.70;;;;;;5046006;28;20049;-77
2023/02/26 01:00:10;;;;;;;0.82;0.52;;;-0.30;82.10;;;;;;5036973;28;20048;-75
2023/02/26 01:02:38;;;;;;;5.13;0.75;;;-0.30;82.00;;;;;;5058780;22;20059;-75
2023/02/26 01:05:06;;;;;;;1.17;0.70;;;-0.20;81.10;;;;;;4998795;28;20144;-75
2023/02/26 01:07:46;;;;;;;2.20;0.50;;;-0.20;80.20;;;;;;5013851;28;20807;-75
2023/02/26 01:10:14;;;;;;;4.43;0.60;;;-0.20;80.30;;;;;;5014374;28;20053;-75
2023/02/26 01:12:41;;;;;;;5.57;0.50;;;-0.20;80.60;;;;;;4997733;28;20047;-75
2023/02/26 01:15:09;;;;;;;4.50;0.80;;;-0.20;79.40;;;;;;5016224;28;21486;-75
2023/02/26 01:17:42;;;;;;;5.38;0.63;;;-0.20;78.80;;;;;;4998849;28;20060;-75
2023/02/26 01:20:22;;;;;;;2.00;0.65;;;-0.20;78.80;;;;;;4999021;28;20052;-75
2023/02/26 01:22:49;;;;;;;2.13;0.63;;;-0.10;78.60;;;;;;4999772;28;20084;-75
2023/02/26 01:25:24;;;;;;;1.35;0.50;;;-0.10;78.30;;;;;;5014488;28;20053;-75
2023/02/26 01:27:52;;;;;;;0.57;0.30;;;-0.10;76.90;;;;;;5018102;28;20671;-75
2023/02/26 01:30:20;;;;;;;5.22;0.52;;;-0.10;77.30;;;;;;4994035;28;20056;-75
2023/02/26 01:33:16;;;;;;;4.43;0.38;;;-0.10;77.70;;;;;;5016931;28;20050;-75
2023/02/26 01:35:54;;;;;;;0.55;0.40;;;-0.10;77.40;;;;;;5001374;28;20057;-75
2023/02/26 01:38:57;;;;;;;1.83;0.50;;;-0.10;77.70;;;;;;5020743;28;20069;-75
2023/02/26 01:41:49;;;;;;;4.53;0.70;;;-0.10;78.10;;;;;;5020437;28;20056;-75
2023/02/26 01:44:28;;;;;;;3.30;0.30;;;-0.10;78.00;;;;;;5022977;28;20046;-75
2023/02/26 01:47:20;;;;;;;3.55;0.70;;;-0.10;76.70;;;;;;5024610;28;20060;-75
2023/02/26 01:49:47;;;;;;;2.40;0.63;;;-0.10;75.90;;;;;;5019676;28;20049;-75
2023/02/26 01:52:36;;;;;;;2.92;0.50;;;-0.10;76.20;;;;;;5004874;28;20057;-75
2023/02/26 01:55:04;;;;;;;5.28;0.52;;;-0.10;77.10;;;;;;5021761;28;20061;-75
2023/02/26 01:57:31;;;;;;;0.82;0.50;;;-0.10;77.40;;;;;;5022813;28;20079;-75
2023/02/26 01:59:58;;;;;;;3.22;0.32;;;-0.10;76.80;;;;;;5022398;28;20053;-75
2023/02/26 02:02:26;;;;;;;3.20;0.47;;;-0.10;77.40;;;;;;5000733;28;20376;-75
2023/02/26 02:04:53;;;;;;;5.05;0.50;;;-0.10;77.20;;;;;;5022568;28;20152;-75
2023/02/26 02:07:20;;;;;;;1.65;0.50;;;-0.20;76.40;;;;;;5022325;28;20061;-75
2023/02/26 02:09:47;;;;;;;1.55;0.50;;;-0.20;77.50;;;;;;5004020;28;20940;-75
2023/02/26 02:12:35;;;;;;;1.58;0.38;;;-0.20;76.90;;;;;;5004676;28;20666;-75
2023/02/26 02:15:14;;;;;;;0.47;0.30;;;-0.30;77.00;;;;;;5021235;28;20054;-73
2023/02/26 02:18:08;;;;;;;1.38;0.40;;;-0.40;77.70;;;;;;5021655;28;20061;-74
2023/02/26 02:20:59;;;;;;;2.58;0.65;;;-0.50;76.90;;;;;;5017513;28;20056;-74
2023/02/26 02:23:38;;;;;;;1.40;0.60;;;-0.50;77.70;;;;;;5017674;28;20121;-75
2023/02/26 02:26:23;;;;;;;1.95;0.38;;;-0.70;78.00;;;;;;5017453;28;20083;-74
2023/02/26 02:29:09;;;;;;;;;;;-0.70;79.00;;;;;;5013821;28;20055;-74
2023/02/26 02:31:59;;;;;;;1.23;0.57;;;-0.80;79.20;;;;;;4999620;28;19936;-74
2023/02/26 02:34:52;;;;;;;3.67;0.20;;;-1.00;80.30;;;;;;5014874;28;20053;-74
2023/02/26 02:37:46;;;;;;;1.17;0.30;;;-1.00;80.50;;;;;;5004395;28;20063;-77
2023/02/26 02:40:28;;;;;;;0.40;0.20;;;-1.10;81.30;;;;;;5010400;28;20099;-77
2023/02/26 02:43:07;;;;;;;2.40;0.40;;;-1.20;81.60;;;;;;4999273;28;20056;-79
2023/02/26 02:46:00;;;;;;;5.28;0.20;;;-1.30;81.80;;;;;;5016057;28;20057;-77
2023/02/26 02:49:01;;;;;;;0.73;0.30;;;-1.30;82.10;;;;;;4992039;28;20057;-77
2023/02/26 02:51:43;;;;;;;2.67;0.60;;;-1.40;82.20;;;;;;4984090;28;20049;-77
2023/02/26 02:54:18;;;;;;;1.30;0.57;;;-1.40;82.40;;;;;;5002763;28;20045;-77
2023/02/26 02:57:14;;;;;;;4.28;0.50;;;-1.40;83.60;;;;;;5031075;28;20072;-78
2023/02/26 02:59:49;;;;;;;3.78;0.50;;;-1.50;84.10;;;;;;5006754;28;20654;-77
2023/02/26 03:02:30;;;;;;;2.37;0.40;;;-1.50;83.60;;;;;;5006186;28;20065;-77
2023/02/26 03:04:57;;;;;;;2.40;0.52;;;-1.60;83.80;;;;;;5025404;28;20072;-78
2023/02/26 03:07:24;;;;;;;1.38;0.50;;;-1.60;83.60;;;;;;5026619;28;20038;-77
2023/02/26 03:09:51;;;;;;;1.23;0.57;;;-1.70;83.90;;;;;;5011980;28;20568;-77
2023/02/26 03:12:18;;;;;;;1.27;0.40;;;-1.70;84.10;;;;;;5028314;28;20041;-78
2023/02/26 03:14:45;;;;;;;1.52;0.38;;;-1.70;84.00;;;;;;5011203;28;20054;-77
2023/02/26 03:17:30;;;;;;;2.67;0.63;;;-1.70;84.10;;;;;;5010550;28;20749;-77
2023/02/26 03:20:00;;;;;;;4.22;0.73;;;-1.80;84.90;;;;;;5028219;28;20862;-77
2023/02/26 03:22:39;;;;;;;2.20;0.60;;;-1.80;85.40;;;;;;5029565;28;20140;-77
2023/02/26 03:25:15;;;;;;;0.90;0.35;;;-1.80;84.70;;;;;;5028843;28;20136;-78
2023/02/26 03:27:52;;;;;;;2.40;0.28;;;-1.80;84.60;;;;;;5025235;28;20050;-77
2023/02/26 03:30:33;;;;;;;2.55;0.70;;;-1.90;85.40;;;;;;5005439;28;20091;-77
2023/02/26 03:33:22;;;;;;;4.18;0.77;;;-1.90;84.70;;;;;;5025908;28;20049;-77
2023/02/26 03:36:21;;;;;;;0.57;0.38;;;-2.00;85.60;;;;;;5026709;28;20680;-78
2023/02/26 03:38:58;;;;;;;1.27;0.50;;;-2.00;85.60;;;;;;4982752;28;20077;-77
2023/02/26 03:41:32;;;;;;;8.50;0.90;;;-2.00;85.70;;;;;;5028602;28;20391;-78
2023/02/26 03:44:24;;;;;;;1.10;0.30;;;-2.10;85.90;;;;;;5008602;28;20045;-77
2023/02/26 03:46:56;;;;;;;0.80;0.38;;;-2.10;86.00;;;;;;5029616;28;20041;-78
2023/02/26 03:49:31;;;;;;;2.75;0.38;;;-2.10;85.60;;;;;;5029774;28;20068;-77
2023/02/26 03:52:00;;;;;;;3.20;0.68;;;-2.10;86.30;;;;;;5025685;28;20058;-78
2023/02/26 03:54:32;;;;;;;5.47;0.55;;;-2.20;86.00;;;;;;5025010;28;20049;-78
2023/02/26 03:56:59;;;;;;;11.95;1.23;;;-2.20;86.40;;;;;;5029743;28;20053;-77
2023/02/26 03:59:26;;;;;;;4.82;0.80;;;-2.20;86.80;;;;;;5025402;28;20053;-78
2023/02/26 04:02:05;;;;;;;0.82;0.50;;;-2.30;87.10;;;;;;5033058;28;20049;-78
2023/02/26 04:04:41;;;;;;;1.80;0.47;;;-2.30;86.90;;;;;;5026462;28;20085;-78
2023/02/26 04:07:09;;;;;;;5.63;0.70;;;-2.30;87.00;;;;;;5024044;28;20084;-78
2023/02/26 04:09:36;;;;;;;1.75;0.50;;;-2.40;87.20;;;;;;5022158;28;20961;-77
2023/02/26 04:12:03;;;;;;;1.77;0.60;;;-2.30;86.90;;;;;;5004307;28;20993;-78
2023/02/26 04:14:30;;;;;;;1.55;0.43;;;-2.40;87.50;;;;;;5004802;28;20486;-78
2023/02/26 04:16:56;;;;;;;1.48;0.43;;;-2.40;87.30;;;;;;5024302;28;20075;-78
2023/02/26 04:19:23;;;;;;;4.82;0.65;;;-2.40;86.90;;;;;;5027857;28;20053;-77
2023/02/26 04:21:50;;;;;;;1.65;0.50;;;-2.40;87.10;;;;;;5030919;28;20045;-78
2023/02/26 04:24:17;;;;;;;3.33;0.50;;;-2.40;87.50;;;;;;5009961;28;20715;-78
2023/02/26 04:26:44;;;;;;;9.18;1.02;;;-2.40;87.00;;;;;;5029198;28;20064;-78
2023/02/26 04:29:11;;;;;;;3.20;0.57;;;-2.40;87.00;;;;;;5029589;28;20052;-77
2023/02/26 04:31:38;;;;;;;6.03;0.73;;;-2.40;86.40;;;;;;5009746;28;20049;-78
2023/02/26 04:34:04;;;;;;;9.23;0.68;;;-2.40;87.50;;;;;;5031924;28;20071;-77
2023/02/26 04:36:32;;;;;;;4.15;0.30;;;-2.40;87.60;;;;;;5031941;28;21332;-77
2023/02/26 04:38:58;;;;;;;4.45;0.80;;;-2.40;87.30;;;;;;5031051;28;20156;-78
2023/02/26 04:41:25;;;;;;;8.13;0.88;;;-2.50;87.70;;;;;;5028743;28;20487;-77
2023/02/26 04:43:52;;;;;;;3.95;0.73;;;-2.40;86.80;;;;;;5030903;28;20169;-77
2023/02/26 04:46:19;;;;;;;1.08;0.98;;;-2.40;87.40;;;;;;5031400;28;20055;-78
2023/02/26 04:48:46;;;;;;;0.73;0.40;;;-2.40;86.80;;;;;;5008756;28;20099;-78
2023/02/26 04:51:13;;;;;;;1.45;0.52;;;-2.40;86.40;;;;;;5036595;22;20045;-76
2023/02/26 04:53:40;;;;;;;2.63;0.35;;;-2.40;85.90;;;;;;5063531;28;20063;-76
2023/02/26 04:56:07;;;;;;;1.02;0.30;;;-2.40;85.70;;;;;;5047946;28;20135;-77
2023/02/26 04:58:34;;;;;;;5.55;0.28;;;-2.40;86.30;;;;;;5048207;28;20044;-77
2023/02/26 05:01:01;;;;;;;8.18;0.57;;;-2.40;85.70;;;;;;5049882;28;20053;-78
2023/02/26 05:03:27;;;;;;;0.70;0.30;;;-2.40;85.70;;;;;;5048220;28;20048;-78
2023/02/26 05:05:54;;;;;;;3.65;0.73;;;-2.40;85.70;;;;;;5045443;28;20041;-77
2023/02/26 05:08:21;;;;;;;3.25;0.60;;;-2.40;85.80;;;;;;5062295;28;20055;-77
2023/02/26 05:10:50;;;;;;;1.77;0.28;;;-2.40;85.70;;;;;;5061805;28;20055;-78
2023/02/26 05:13:18;;;;;;;5.80;1.20;;;-2.50;86.10;;;;;;5043389;28;20125;-78
2023/02/26 05:15:45;;;;;;;0.22;0.22;;;-2.50;86.20;;;;;;5054111;28;20060;-76
2023/02/26 05:18:12;;;;;;;4.32;0.40;;;-2.50;85.90;;;;;;5039567;28;20048;-78
2023/02/26 05:20:40;;;;;;;1.05;0.40;;;-2.50;86.00;;;;;;5038729;28;20059;-77
2023/02/26 05:23:06;;;;;;;0.40;0.20;;;-2.60;86.00;;;;;;5041931;28;20058;-77
2023/02/26 05:25:33;;;;;;;6.22;0.50;;;-2.60;85.90;;;;;;5062027;28;20134;-78
2023/02/26 05:28:00;;;;;;;5.03;0.60;;;-2.50;86.20;;;;;;5038211;28;20474;-78
2023/02/26 05:30:27;;;;;;;3.72;0.93;;;-2.60;85.70;;;;;;5056079;28;20053;-78
2023/02/26 05:32:54;;;;;;;0.40;0.20;;;-2.60;86.00;;;;;;5055442;28;20092;-79
2023/02/26 05:35:21;;;;;;;0.68;0.55;;;-2.60;86.40;;;;;;5037493;28;20053;-78
2023/02/26 05:37:47;;;;;;;0.75;0.50;;;-2.60;85.80;;;;;;5037698;28;20863;-78
2023/02/26 05:40:14;;;;;;;4.20;0.88;;;-2.60;85.80;;;;;;5048983;28;20051;-79
2023/02/26 05:42:41;;;;;;;17.30;3.33;;;-2.60;85.50;;;;;;5049502;28;20876;-77
2023/02/26 05:45:08;;;;;;;16.23;10.07;;;-2.60;86.20;;;;;;5048028;28;20056;-77
2023/02/26 05:47:36;;;;;;;4.63;3.13;;;-2.60;86.00;;;;;;5063945;28;20052;-77
2023/02/26 05:50:04;;;;;;;3.03;0.90;;;-2.70;86.70;;;;;;5064204;28;20735;-78
2023/02/26 05:52:30;;;;;;;3.45;1.30;;;-2.80;86.90;;;;;;5049146;28;20106;-77
2023/02/26 05:54:58;;;;;;;3.97;0.60;;;-2.90;87.50;;;;;;5067955;28;20040;-78
2023/02/26 05:57:24;;;;;;;2.20;0.60;;;-2.90;87.80;;;;;;5048094;28;20060;-79
2023/02/26 05:59:51;;;;;;;4.30;0.60;;;-2.90;88.00;;;;;;5063596;28;20131;-77
2023/02/26 06:02:18;;;;;;;4.20;0.65;;;-3.00;88.50;;;;;;5046787;28;20667;-79
2023/02/26 06:04:45;;;;;;;0.73;0.40;;;-3.00;87.90;;;;;;5065622;28;20058;-79
2023/02/26 06:07:12;;;;;;;0.28;0.25;;;-3.00;87.60;;;;;;5047102;28;20412;-78
2023/02/26 06:09:39;;;;;;;0.98;0.43;;;-3.00;87.70;;;;;;5046766;28;20056;-78
2023/02/26 06:12:07;;;;;;;3.03;0.70;;;-3.00;87.80;;;;;;5046969;28;20744;-78
2023/02/26 06:14:34;;;;;;;6.28;1.25;;;-3.00;88.20;;;;;;5038024;28;20052;-79
2023/02/26 06:17:03;;;;;;;4.05;1.10;;;-3.00;88.40;;;;;;5055071;28;20136;-79
2023/02/26 06:19:30;;;;;;;8.73;1.50;;;-3.10;88.70;;;;;;5043261;28;20090;-78
2023/02/26 06:21:57;;;;;;;1.55;0.75;;;-3.10;89.10;;;;;;5046231;28;20041;-79
2023/02/26 06:24:24;;;;;;;2.72;0.85;;;-3.20;89.70;;;;;;5048411;28;20053;-79
2023/02/26 06:26:51;;;;;;;0.73;0.35;;;-3.10;89.50;;;;;;5050197;28;20052;-78
2023/02/26 06:29:19;;;;;;;0.85;0.38;;;-3.10;89.60;;;;;;5048285;28;20045;-79
2023/02/26 06:31:46;;;;;;;2.70;0.68;;;-3.10;89.50;;;;;;5047440;28;20048;-78
2023/02/26 06:34:13;;;;;;;1.75;0.43;;;-3.10;89.90;;;;;;5045428;28;20070;-79
2023/02/26 06:36:41;;;;;;;1.20;0.47;;;-3.00;89.00;;;;;;5042373;28;20777;-78
2023/02/26 06:39:08;;;;;;;7.72;0.82;;;-3.00;89.60;;;;;;5039130;28;20052;-78
2023/02/26 06:41:35;;;;;;;3.75;0.60;;;-3.00;89.40;;;;;;5054482;28;20066;-79
2023/02/26 06:44:02;;;;;;;5.38;0.63;;;-3.00;89.60;;;;;;5054703;28;20060;-78
2023/02/26 06:46:29;;;;;;;5.38;0.90;;;-3.00;89.60;;;;;;5039427;28;20046;-76
2023/02/26 06:48:56;;;;;;;3.72;0.75;;;-2.90;89.90;;;;;;5053090;28;20063;-76
2023/02/26 06:54:19;;;;;;;5.18;1.00;;;-2.80;90.40;;;;;;5032120;28;20064;-76
2023/02/26 06:56:46;;;;;;;5.60;1.45;;;-2.70;90.30;;;;;;5025161;28;20486;-76
2023/02/26 06:59:14;;;;;;;3.63;0.47;;;-2.60;90.10;;;;;;5019837;28;20057;-76
2023/02/26 07:01:41;;;;;;;1.85;0.88;;;-2.50;89.70;;;;;;5026462;28;20051;-75
2023/02/26 07:04:08;;;;;;;6.00;0.70;;;-2.40;89.00;;;;;;5037408;28;20045;-76
2023/02/26 07:06:34;;;;;;;5.10;0.80;;;-2.30;89.00;;;;;;5032853;28;20048;-76
2023/02/26 07:09:01;;;;;;;2.35;0.55;;;-2.20;88.20;;;;;;5027134;28;20076;-76
2023/02/26 07:11:28;;;;;;;3.90;0.50;;;-2.10;89.00;;;;;;5018354;28;20731;-76
2023/02/26 07:13:55;;;;;;;2.53;0.40;;;-2.00;88.90;;;;;;5018739;28;20049;-76
2023/02/26 07:16:22;;;;;;;2.50;0.98;;;-1.80;87.90;;;;;;5022089;28;20049;-76
2023/02/26 07:18:49;;;;;;;2.85;0.40;;;-1.60;86.70;;;;;;5037469;28;20051;-76
2023/02/26 07:21:16;;;;;;;1.25;0.40;;;-1.50;87.10;;;;;;5034971;28;20040;-76
2023/02/26 07:23:43;;;;;;;4.40;0.70;;;-1.30;86.30;;;;;;5039230;28;20049;-76
2023/02/26 07:26:10;;;;;;;1.98;0.60;;;-1.00;85.20;;;;;;5030841;28;20054;-76
2023/02/26 07:28:37;;;;;;;5.60;0.55;;;-1.00;84.10;;;;;;5043824;28;20044;-76
2023/02/26 07:31:04;;;;;;;1.30;0.50;;;-1.00;84.50;;;;;;5023661;28;20139;-76
2023/02/26 07:33:31;;;;;;;6.57;1.38;;;-1.00;83.60;;;;;;5022013;28;20365;-76
2023/02/26 07:35:58;;;;;;;2.47;0.98;;;-0.90;83.90;;;;;;5027845;28;20087;-76
2023/02/26 07:38:24;;;;;;;2.55;1.05;;;-0.80;82.80;;;;;;5040248;28;20602;-76
2023/02/26 07:40:55;;;;;;;4.70;1.40;;;-0.80;82.40;;;;;;5019180;28;20053;-76
2023/02/26 07:43:23;;;;;;;9.57;2.95;;;-0.80;82.60;;;;;;5021969;28;20091;-75
2023/02/26 07:45:50;;;;;;;14.60;4.68;;;-0.70;82.90;;;;;;5022469;28;20052;-75
2023/02/26 07:48:18;;;;;;;21.08;6.10;;;-0.70;82.90;;;;;;5021994;28;20052;-76
2023/02/26 07:50:45;;;;;;;14.65;3.20;;;-0.70;82.50;;;;;;5039862;28;20501;-76
2023/02/26 07:53:12;;;;;;;6.45;2.15;;;-0.60;82.00;;;;;;5018224;28;20057;-76
2023/02/26 07:55:39;;;;;;;9.50;1.48;;;-0.40;80.90;;;;;;5038328;28;20486;-76
2023/02/26 07:58:05;;;;;;;6.32;1.20;;;-0.40;80.60;;;;;;5027233;28;20049;-75
2023/02/26 08:00:32;;;;;;;5.80;0.95;;;-0.40;80.50;;;;;;5040758;28;20810;-75
2023/02/26 08:02:59;;;;;;;6.78;1.75;;;-0.40;82.50;;;;;;5042141;28;20071;-76
2023/02/26 08:05:26;;;;;;;3.30;1.38;;;-0.30;80.40;;;;;;5037494;28;20049;-76
2023/02/26 08:07:55;;;;;;;8.30;1.80;;;-0.30;80.00;;;;;;5036342;28;20049;-75
2023/02/26 08:10:22;;;;;;;6.75;1.60;;;-0.20;81.90;;;;;;5039111;28;20127;-76
2023/02/26 08:12:49;;;;;;;4.45;1.38;;;-0.10;81.20;;;;;;5033505;28;20041;-75
2023/02/26 08:15:16;;;;;;;1.60;0.75;;;0.00;80.80;;;;;;5046855;28;20873;-75
2023/02/26 08:17:43;;;;;;;1.60;0.38;;;0.10;78.70;;;;;;5039192;28;20052;-75
2023/02/26 08:20:10;;;;;;;2.75;0.45;;;0.30;76.80;;;;;;5038521;28;20047;-75
2023/02/26 08:22:37;;;;;;;2.83;1.02;;;0.50;76.60;;;;;;5013401;28;20049;-75
2023/02/26 08:25:05;;;;;;;7.68;2.05;;;0.60;76.70;;;;;;5021970;28;20088;-75
2023/02/26 08:27:31;;;;;;;8.55;2.17;;;0.90;75.60;;;;;;5017646;28;20061;-76
2023/02/26 08:29:59;;;;;;;12.93;5.32;;;1.40;76.00;;;;;;5018039;28;20045;-76
2023/02/26 08:32:28;;;;;;;6.88;3.15;;;2.00;73.90;;;;;;5017016;28;20099;-75
2023/02/26 08:34:55;;;;;;;4.90;1.80;;;2.50;71.80;;;;;;5017841;28;20108;-75
2023/02/26 08:37:25;;;;;;;18.23;2.00;;;2.90;69.60;;;;;;5015248;28;20134;-76
2023/02/26 08:39:55;;;;;;;7.90;2.80;;;3.20;70.90;;;;;;5037031;28;20111;-76
2023/02/26 08:42:22;;;;;;;5.03;1.70;;;4.20;68.50;;;;;;5033535;28;20061;-76
2023/02/26 08:44:49;;;;;;;9.02;1.73;;;4.70;63.10;;;;;;5033360;28;20056;-76
2023/02/26 08:47:15;;;;;;;6.47;1.20;;;4.10;64.20;;;;;;5041142;28;20041;-76
2023/02/26 08:49:53;;;;;;;5.97;1.85;;;3.50;63.50;;;;;;5021367;28;20084;-76
2023/02/26 08:52:20;;;;;;;6.50;2.90;;;2.80;67.20;;;;;;5019146;28;20060;-76
2023/02/26 08:54:47;;;;;;;7.78;2.40;;;2.50;69.70;;;;;;5037108;28;20048;-76
2023/02/26 08:57:14;;;;;;;7.97;1.35;;;2.50;67.90;;;;;;5035570;28;20098;-76
2023/02/26 08:59:42;;;;;;;2.85;0.90;;;2.20;68.30;;;;;;5038979;28;20501;-76
2023/02/26 09:02:12;;;;;;;2.95;0.80;;;2.00;69.70;;;;;;5019012;28;20053;-76
2023/02/26 09:04:39;;;;;;;3.35;1.20;;;2.00;71.70;;;;;;5041329;22;20151;-79
2023/02/26 09:07:06;;;;;;;3.15;1.48;;;2.60;72.40;;;;;;5025990;28;20162;-80
2023/02/26 09:09:33;;;;;;;6.85;1.20;;;3.10;68.00;;;;;;5023064;28;20045;-79
2023/02/26 09:12:00;;;;;;;4.75;1.10;;;2.80;66.40;;;;;;5014015;28;20057;-79
2023/02/26 09:14:27;;;;;;;4.10;1.02;;;2.20;69.20;;;;;;5025368;28;20057;-80
2023/02/26 09:16:54;;;;;;;4.90;2.05;;;2.20;69.50;;;;;;5025704;28;20049;-79
2023/02/26 09:19:21;;;;;;;3.90;1.50;;;2.50;69.10;;;;;;5024181;28;20053;-79
2023/02/26 09:21:48;;;;;;;3.72;1.52;;;2.70;68.80;;;;;;5024718;28;20053;-78
2023/02/26 09:24:14;;;;;;;3.67;1.33;;;2.90;69.10;;;;;;5025530;28;20090;-79
2023/02/26 09:26:41;;;;;;;4.40;0.80;;;3.90;66.90;;;;;;5030338;28;20609;-78
2023/02/26 09:29:10;;;;;;;2.35;1.13;;;4.00;64.50;;;;;;5026416;28;20076;-78
2023/02/26 09:31:37;;;;;;;10.50;2.08;;;4.20;63.70;;;;;;5023844;28;20049;-78
2023/02/26 09:34:04;;;;;;;5.57;0.90;;;4.60;62.80;;;;;;5023983;28;20072;-75
2023/02/26 09:36:31;;;;;;;2.60;1.20;;;5.50;60.40;;;;;;5025754;28;20064;-76
2023/02/26 09:38:58;;;;;;;9.65;1.52;;;5.80;59.80;;;;;;5023541;28;20048;-76
2023/02/26 09:41:33;;;;;;;2.95;1.05;;;6.70;57.20;;;;;;5023481;28;20046;-76
2023/02/26 09:47:24;;;;;;;3.20;0.70;;;7.30;52.90;;;;;;5062396;28;20055;-74
2023/02/26 09:50:00;;;;;;;2.05;1.10;;;7.30;52.00;;;;;;5044437;28;20052;-74
2023/02/26 09:52:49;;;;;;;2.97;1.10;;;6.40;55.50;;;;;;5062086;28;20052;-74
2023/02/26 09:55:35;;;;;;;5.82;1.08;;;6.00;57.40;;;;;;5063648;28;20052;-75
2023/02/26 09:58:04;;;;;;;2.83;1.10;;;5.70;58.40;;;;;;5049429;28;20048;-75
2023/02/26 10:00:50;;;;;;;6.90;1.48;;;5.50;56.90;;;;;;5049308;28;21005;-76
2023/02/26 10:03:25;;;;;;;;;;;5.40;58.50;;;;;;5053106;28;20727;-77
2023/02/26 10:06:12;;;;;;;7.28;2.13;;;5.10;57.80;;;;;;5048931;28;19932;-82
2023/02/26 10:09:21;;;;;;;8.82;1.63;;;5.20;58.70;;;;;;5053608;28;20114;-81
2023/02/26 10:12:01;;;;;;;5.30;2.22;;;5.00;58.00;;;;;;5021312;28;20064;-81
2023/02/26 10:14:36;;;;;;;5.88;1.75;;;6.30;56.10;;;;;;5073053;28;20468;-80
2023/02/26 10:17:18;;;;;;;6.55;2.13;;;6.30;54.80;;;;;;5073168;28;20493;-80
2023/02/26 10:19:48;;;;;;;11.55;2.70;;;6.30;55.50;;;;;;5051721;23;20500;-77
2023/02/26 10:22:30;;;;;;;12.57;1.45;;;5.70;56.50;;;;;;5024637;28;20049;-77
2023/02/26 10:28:53;;;;;;;1.30;0.77;;;5.20;57.40;;;;;;5015987;23;20054;-80
2023/02/26 10:31:33;;;;;;;3.65;0.73;;;5.60;58.70;;;;;;4984140;28;20502;-81
2023/02/26 10:34:00;;;;;;;2.17;1.00;;;6.20;59.50;;;;;;4984397;28;20050;-80
2023/02/26 10:36:50;;;;;;;2.42;0.75;;;6.70;58.50;;;;;;4998087;28;20054;-78
2023/02/26 10:39:31;;;;;;;3.55;0.60;;;7.20;57.70;;;;;;4981801;28;20077;-79
2023/02/26 10:45:33;;;;;;;1.83;0.70;;;9.10;52.20;;;;;;4997536;28;20099;-88
2023/02/26 10:48:21;;;;;;;4.43;0.77;;;8.10;53.60;;;;;;5000370;28;20732;-92
2023/02/26 10:50:51;;;;;;;10.35;0.93;;;8.50;55.60;;;;;;5009866;28;20050;-88
2023/02/26 10:53:20;;;;;;;3.72;1.45;;;9.80;53.20;;;;;;4992603;28;20495;-85
2023/02/26 10:58:36;;;;;;;2.10;1.05;;;11.00;50.90;;;;;;4963453;28;20735;-80
2023/02/26 11:01:12;;;;;;;5.47;1.00;;;10.50;50.40;;;;;;4965704;28;20050;-84
2023/02/26 11:03:55;;;;;;;3.33;1.20;;;11.00;51.50;;;;;;4961402;28;20063;-81
2023/02/26 11:09:36;;;;;;;5.95;2.25;;;11.50;50.10;;;;;;5003612;28;20073;-87
2023/02/26 11:12:22;;;;;;;2.20;0.63;;;11.50;45.90;;;;;;5017009;28;20050;-83
2023/02/26 11:14:49;;;;;;;5.45;0.95;;;10.80;48.70;;;;;;5009078;28;20565;-82
2023/02/26 11:17:26;;;;;;;1.83;1.00;;;11.20;48.80;;;;;;5005218;28;20074;-85
2023/02/26 11:19:58;;;;;;;5.53;0.75;;;9.80;50.80;;;;;;5005336;28;21008;-82
2023/02/26 11:22:28;;;;;;;2.97;0.90;;;9.80;53.90;;;;;;5021257;28;20046;-79
2023/02/26 11:24:58;;;;;;;2.53;1.00;;;9.90;50.30;;;;;;5007443;28;20133;-86
2023/02/26 11:27:33;;;;;;;1.33;0.60;;;10.20;49.70;;;;;;5016770;28;20046;-86
2023/02/26 11:30:13;;;;;;;6.00;1.30;;;9.70;51.10;;;;;;5006068;28;20061;-83
2023/02/26 11:32:44;;;;;;;3.50;1.00;;;9.00;50.00;;;;;;5011299;28;20104;-82
2023/02/26 11:35:14;;;;;;;6.10;1.20;;;8.50;51.50;;;;;;5024388;28;20495;-80
2023/02/26 11:37:47;;;;;;;2.92;0.65;;;7.50;53.70;;;;;;5003700;28;20478;-79
2023/02/26 11:40:16;;;;;;;1.00;0.30;;;7.00;56.40;;;;;;5001847;28;20645;-77
2023/02/26 11:42:49;;;;;;;2.65;0.63;;;6.70;57.00;;;;;;5000359;28;20081;-76
2023/02/26 11:45:18;;;;;;;8.55;1.20;;;6.60;57.60;;;;;;5002376;28;20755;-77
2023/02/26 11:47:48;;;;;;;11.20;1.60;;;6.70;59.10;;;;;;5000964;28;20059;-76
2023/02/26 11:50:21;;;;;;;18.05;2.13;;;6.50;59.80;;;;;;4995613;28;20065;-76
2023/02/26 11:53:04;;;;;;;2.85;0.60;;;6.10;60.80;;;;;;4999001;28;20099;-73
2023/02/26 11:55:47;;;;;;;2.85;0.75;;;5.50;61.60;;;;;;4999246;28;20081;-74
2023/02/26 11:58:21;;;;;;;2.92;0.50;;;5.30;61.90;;;;;;5001444;28;20049;-73
2023/02/26 12:00:56;;;;;;;1.38;0.60;;;5.00;62.80;;;;;;4997719;28;20050;-75
2023/02/26 12:03:31;;;;;;;3.13;0.70;;;5.20;65.90;;;;;;4993957;28;20054;-72
2023/02/26 12:06:00;;;;;;;3.28;0.70;;;6.90;61.20;;;;;;4997641;28;20054;-73
2023/02/26 12:08:39;;;;;;;4.03;0.70;;;7.60;58.00;;;;;;4992392;28;20054;-74
2023/02/26 12:11:35;;;;;;;2.53;0.93;;;7.30;56.60;;;;;;4990868;28;20050;-75
2023/02/26 12:14:04;;;;;;;;;;;6.20;62.10;;;;;;4977944;28;20051;-75
2023/02/26 12:16:49;;;;;;;5.80;1.15;;;5.90;63.90;;;;;;5011560;28;19929;-76
2023/02/26 12:19:44;;;;;;;5.97;0.82;;;6.10;63.90;;;;;;4998543;28;20056;-75
2023/02/26 12:22:20;;;;;;;5.07;1.47;;;6.20;64.70;;;;;;5004878;28;20053;-75
2023/02/26 12:25:06;;;;;;;9.25;1.58;;;6.60;62.40;;;;;;5001057;28;20502;-74
2023/02/26 12:27:39;;;;;;;50.45;15.85;;;5.80;64.30;;;;;;5005427;28;20045;-76
2023/02/26 12:30:24;;;;;;;35.50;9.40;;;6.40;65.80;;;;;;4997246;28;20592;-74
2023/02/26 12:33:29;;;;;;;90.78;27.13;;;7.50;59.70;;;;;;5013906;28;20048;-75
2023/02/26 12:36:20;;;;;;;6.85;2.20;;;7.40;62.80;;;;;;4998736;28;20061;-75
2023/02/26 12:38:56;;;;;;;4.28;1.77;;;8.80;58.60;;;;;;4997749;28;20053;-75
2023/02/26 12:41:45;;;;;;;5.85;1.77;;;9.50;58.70;;;;;;4993490;28;20064;-75
2023/02/26 12:44:33;;;;;;;4.10;1.50;;;10.00;55.20;;;;;;5012617;28;20495;-74
2023/02/26 12:47:23;;;;;;;3.90;1.45;;;9.90;56.00;;;;;;4998464;28;20057;-73
2023/02/26 12:50:05;;;;;;;5.00;1.10;;;8.40;53.10;;;;;;4961867;28;20042;-74
2023/02/26 12:53:03;;;;;;;3.00;1.60;;;7.50;56.20;;;;;;5013063;28;20759;-74
2023/02/26 12:55:51;;;;;;;5.43;1.70;;;6.90;53.80;;;;;;4997041;28;20058;-75
2023/02/26 12:58:43;;;;;;;5.38;1.80;;;6.30;59.70;;;;;;5003594;28;20050;-74
2023/02/26 13:01:27;;;;;;;6.55;1.55;;;6.50;55.70;;;;;;4994765;28;20605;-75
2023/02/26 13:04:12;;;;;;;7.40;1.52;;;7.00;57.80;;;;;;5003119;28;20078;-76
2023/02/26 13:07:02;;;;;;;2.00;1.00;;;7.70;58.20;;;;;;4997569;28;20180;-75
2023/02/26 13:10:09;;;;;;;3.60;1.00;;;8.30;53.60;;;;;;5000147;28;20058;-75
2023/02/26 13:12:54;;;;;;;1.63;0.50;;;7.80;53.00;;;;;;4998644;28;20053;-75
2023/02/26 13:15:36;;;;;;;3.97;1.00;;;6.70;53.40;;;;;;4996575;28;20060;-77
2023/02/26 13:18:31;;;;;;;4.57;1.00;;;6.20;56.50;;;;;;4997432;28;20057;-77
2023/02/26 13:21:27;;;;;;;2.65;0.57;;;6.20;59.90;;;;;;5014009;28;20056;-76
2023/02/26 13:24:13;;;;;;;4.50;0.95;;;7.80;57.10;;;;;;5008006;28;20068;-75
2023/02/26 13:26:42;;;;;;;6.15;1.35;;;8.40;55.50;;;;;;4997966;28;20050;-75
2023/02/26 13:29:23;;;;;;;7.72;2.60;;;8.80;52.60;;;;;;4998465;28;20054;-75
2023/02/26 13:32:00;;;;;;;8.77;2.90;;;8.30;50.00;;;;;;5000983;28;20056;-75
2023/02/26 13:34:39;;;;;;;16.00;6.10;;;7.30;51.80;;;;;;5001827;28;20053;-75
2023/02/26 13:37:20;;;;;;;12.32;2.42;;;6.40;54.40;;;;;;5003359;28;20054;-75
2023/02/26 13:40:05;;;;;;;25.50;8.02;;;5.60;57.50;;;;;;5000702;28;20058;-74
2023/02/26 13:42:40;;;;;;;19.83;7.25;;;5.30;60.60;;;;;;4999525;28;20043;-75